Time;durP1;ratioP1;P1;durP2;ratioP2;P2;SDS_P1;SDS_P2;PMS_P1;PMS_P2;Temp;Humidity;BMP_temperature;BMP_pressure;BME280_temperature;BME280_humidity;BME280_pressure;Samples;Min_cycle;Max_cycle;Signal;HPM_P1;HPM_P2
2022/11/20 00:00:45;;;;;;;12.40;8.30;;;4.40;99.50;;;;;;5010636;28;20025;-70
2022/11/20 00:03:10;;;;;;;11.30;7.88;;;4.40;99.50;;;;;;5011735;28;20644;-71
2022/11/20 00:05:36;;;;;;;12.60;7.80;;;4.40;99.50;;;;;;5009443;28;20040;-72
2022/11/20 00:08:02;;;;;;;12.07;8.20;;;4.40;99.50;;;;;;5008853;28;20030;-71
2022/11/20 00:10:27;;;;;;;13.73;8.95;;;4.40;99.50;;;;;;5009115;28;20022;-72
2022/11/20 00:12:53;;;;;;;13.00;8.70;;;4.40;99.50;;;;;;5010603;28;20088;-72
2022/11/20 00:15:18;;;;;;;11.82;8.15;;;4.40;99.40;;;;;;5007243;28;20117;-72
2022/11/20 00:17:44;;;;;;;12.05;8.63;;;4.30;99.40;;;;;;5006322;28;20038;-72
2022/11/20 00:20:10;;;;;;;12.40;8.13;;;4.30;99.40;;;;;;5008958;28;20539;-71
2022/11/20 00:22:36;;;;;;;12.18;8.45;;;4.30;99.50;;;;;;5004861;28;20029;-71
2022/11/20 00:25:02;;;;;;;12.18;8.40;;;4.30;99.40;;;;;;5005666;28;20092;-72
2022/11/20 00:27:28;;;;;;;10.95;7.93;;;4.30;99.40;;;;;;5004950;28;20038;-72
2022/11/20 00:29:54;;;;;;;10.80;7.47;;;4.30;99.40;;;;;;5004828;28;20478;-72
2022/11/20 00:32:19;;;;;;;11.38;8.43;;;4.30;99.40;;;;;;5004806;28;20033;-72
2022/11/20 00:34:45;;;;;;;11.30;7.90;;;4.30;99.40;;;;;;5006184;28;20496;-72
2022/11/20 00:37:11;;;;;;;11.88;7.68;;;4.30;99.40;;;;;;5004770;28;20080;-71
2022/11/20 00:39:36;;;;;;;12.70;7.60;;;4.30;99.40;;;;;;5006559;28;20033;-71
2022/11/20 00:42:02;;;;;;;12.98;8.73;;;4.30;99.40;;;;;;5005224;28;20389;-72
2022/11/20 00:44:28;;;;;;;13.48;8.63;;;4.30;99.40;;;;;;5006232;28;20125;-70
2022/11/20 00:46:53;;;;;;;12.77;8.63;;;4.30;99.40;;;;;;5005815;28;20437;-72
2022/11/20 00:49:19;;;;;;;12.80;9.43;;;4.30;99.40;;;;;;5005735;28;20030;-72
2022/11/20 00:51:45;;;;;;;13.48;8.93;;;4.30;99.30;;;;;;5007510;28;20392;-72
2022/11/20 00:54:10;;;;;;;13.20;8.30;;;4.30;99.50;;;;;;5009225;28;20040;-71
2022/11/20 00:56:36;;;;;;;11.32;8.20;;;4.30;99.30;;;;;;5005916;28;20128;-72
2022/11/20 00:59:02;;;;;;;14.13;9.68;;;4.30;99.30;;;;;;5008489;28;20030;-72
2022/11/20 01:01:29;;;;;;;12.80;8.13;;;4.30;99.30;;;;;;5008608;28;20064;-72
2022/11/20 01:03:57;;;;;;;13.32;9.02;;;4.30;99.30;;;;;;5006315;28;20038;-71
2022/11/20 01:06:26;;;;;;;12.15;8.00;;;4.30;99.30;;;;;;5006989;28;20065;-71
2022/11/20 01:08:54;;;;;;;12.38;7.95;;;4.30;99.30;;;;;;5006721;28;20073;-71
2022/11/20 01:11:23;;;;;;;12.32;8.57;;;4.30;99.20;;;;;;5005848;28;20040;-71
2022/11/20 01:13:51;;;;;;;14.35;8.10;;;4.30;99.30;;;;;;5005990;28;20030;-71
2022/11/20 01:16:29;;;;;;;13.32;8.52;;;4.30;99.30;;;;;;5008767;28;20104;-71
2022/11/20 01:18:57;;;;;;;11.77;8.15;;;4.20;99.20;;;;;;5008983;28;20123;-71
2022/11/20 01:21:29;;;;;;;13.63;8.85;;;4.20;99.30;;;;;;5008243;28;20030;-70
2022/11/20 01:23:55;;;;;;;11.95;8.52;;;4.30;99.50;;;;;;5006930;28;20073;-71
2022/11/20 01:26:30;;;;;;;13.23;8.85;;;4.20;99.20;;;;;;5005440;28;20072;-71
2022/11/20 01:28:57;;;;;;;14.13;8.68;;;4.20;99.20;;;;;;5006483;28;20484;-71
2022/11/20 01:31:25;;;;;;;11.60;9.15;;;4.20;99.20;;;;;;5006695;28;20022;-71
2022/11/20 01:33:53;;;;;;;14.95;9.30;;;4.20;99.20;;;;;;5006579;28;20044;-71
2022/11/20 01:36:21;;;;;;;13.65;8.15;;;4.20;99.30;;;;;;5006713;28;20091;-71
2022/11/20 01:38:47;;;;;;;16.15;9.63;;;4.20;99.30;;;;;;5006243;28;20029;-72
2022/11/20 01:44:00;;;;;;;12.98;8.88;;;4.20;99.20;;;;;;5009292;28;20457;-70
2022/11/20 01:46:29;;;;;;;11.95;8.70;;;4.20;99.20;;;;;;5003767;28;20535;-71
2022/11/20 01:49:17;;;;;;;12.57;8.52;;;4.30;99.30;;;;;;5005457;28;20025;-71
2022/11/20 01:51:58;;;;;;;13.00;8.35;;;4.30;99.20;;;;;;5005112;28;20121;-71
2022/11/20 01:54:34;;;;;;;13.55;8.75;;;4.20;99.20;;;;;;5012313;28;20386;-72
2022/11/20 01:57:01;;;;;;;14.68;9.60;;;4.20;99.20;;;;;;5013973;28;20049;-71
2022/11/20 01:59:29;;;;;;;12.98;8.98;;;4.20;99.20;;;;;;5015338;28;20385;-72
2022/11/20 02:01:55;;;;;;;14.02;8.40;;;4.20;99.20;;;;;;5012534;28;20028;-71
2022/11/20 02:04:21;;;;;;;14.40;9.27;;;4.20;99.20;;;;;;5013591;28;20390;-71
2022/11/20 02:06:58;;;;;;;14.32;10.52;;;4.20;99.20;;;;;;5012271;28;20042;-72
2022/11/20 02:09:24;;;;;;;13.45;8.15;;;4.20;99.20;;;;;;5012661;28;20496;-71
2022/11/20 02:11:50;;;;;;;14.48;8.30;;;4.20;99.20;;;;;;5011776;28;20026;-70
2022/11/20 02:14:16;;;;;;;13.50;8.13;;;4.20;99.20;;;;;;5012410;28;20041;-69
2022/11/20 02:16:46;;;;;;;12.90;8.63;;;4.20;99.10;;;;;;5012141;28;20022;-71
2022/11/20 02:19:30;;;;;;;13.98;8.88;;;4.20;99.10;;;;;;5012407;28;20042;-70
2022/11/20 02:22:08;;;;;;;14.03;8.63;;;4.20;99.10;;;;;;5011244;28;20033;-70
2022/11/20 02:24:34;;;;;;;13.80;9.50;;;4.20;99.10;;;;;;5012508;28;20529;-71
2022/11/20 02:27:13;;;;;;;12.68;8.77;;;4.10;99.10;;;;;;5010076;28;20030;-71
2022/11/20 02:30:10;;;;;;;11.13;8.13;;;4.20;99.00;;;;;;5010616;28;20481;-70
2022/11/20 02:32:37;;;;;;;10.85;7.88;;;4.10;99.00;;;;;;5004619;28;20034;-71
2022/11/20 02:35:26;;;;;;;12.98;9.05;;;4.10;99.00;;;;;;5011696;28;20038;-71
2022/11/20 02:37:59;;;;;;;10.93;7.65;;;4.10;99.00;;;;;;5010929;28;20033;-71
2022/11/20 02:40:25;;;;;;;13.05;8.80;;;4.10;99.00;;;;;;5015971;28;20029;-70
2022/11/20 02:42:54;;;;;;;16.38;8.95;;;4.10;99.00;;;;;;5007964;28;20026;-71
2022/11/20 02:45:20;;;;;;;14.00;9.23;;;4.10;99.00;;;;;;5007178;28;20071;-70
2022/11/20 02:47:46;;;;;;;17.35;9.38;;;4.10;99.00;;;;;;5004990;28;20496;-70
2022/11/20 02:50:12;;;;;;;14.13;9.73;;;4.10;98.90;;;;;;5006930;28;20030;-71
2022/11/20 02:52:37;;;;;;;14.85;9.52;;;4.10;98.90;;;;;;5006968;28;20478;-71
2022/11/20 02:55:03;;;;;;;16.90;9.45;;;4.00;98.90;;;;;;5007557;28;20045;-71
2022/11/20 02:57:29;;;;;;;11.95;8.45;;;4.10;99.00;;;;;;5005236;28;20026;-71
2022/11/20 02:59:55;;;;;;;13.25;8.73;;;4.10;98.90;;;;;;5004669;28;20030;-71
2022/11/20 03:02:21;;;;;;;12.38;8.55;;;4.10;98.90;;;;;;5007010;28;20033;-70
2022/11/20 03:04:47;;;;;;;12.40;8.10;;;4.00;98.90;;;;;;5007274;28;20034;-70
2022/11/20 03:07:12;;;;;;;12.48;8.88;;;4.10;98.90;;;;;;5006733;28;20045;-70
2022/11/20 03:09:38;;;;;;;13.77;9.05;;;4.10;98.90;;;;;;5005501;28;20041;-70
2022/11/20 03:12:04;;;;;;;13.65;9.13;;;4.10;98.80;;;;;;5007771;28;20038;-71
2022/11/20 03:14:30;;;;;;;12.65;8.93;;;4.00;98.80;;;;;;5006353;28;20504;-71
2022/11/20 03:16:56;;;;;;;15.27;9.07;;;4.00;98.70;;;;;;5005219;28;20029;-70
2022/11/20 03:19:22;;;;;;;14.07;9.32;;;4.00;98.70;;;;;;5005638;28;20026;-70
2022/11/20 03:21:47;;;;;;;15.02;9.50;;;4.00;98.80;;;;;;5004124;28;20026;-72
2022/11/20 03:24:14;;;;;;;14.02;9.52;;;4.00;98.70;;;;;;5006670;28;20022;-70
2022/11/20 03:26:40;;;;;;;15.13;8.85;;;4.00;98.70;;;;;;5005840;28;20033;-70
2022/11/20 03:29:06;;;;;;;13.18;9.27;;;4.00;98.70;;;;;;5006689;28;20038;-70
2022/11/20 03:31:40;;;;;;;14.07;8.35;;;4.00;98.70;;;;;;5005430;28;20041;-70
2022/11/20 03:34:07;;;;;;;13.10;8.90;;;4.00;98.70;;;;;;5005863;28;20034;-70
2022/11/20 03:36:33;;;;;;;12.70;8.82;;;3.90;98.70;;;;;;5005767;28;22056;-70
2022/11/20 03:38:59;;;;;;;12.90;8.77;;;4.00;98.70;;;;;;5004578;28;20044;-70
2022/11/20 03:41:27;;;;;;;15.02;10.38;;;4.00;98.60;;;;;;5006278;28;20068;-70
2022/11/20 03:43:55;;;;;;;14.55;9.77;;;4.00;98.60;;;;;;5005759;28;20099;-70
2022/11/20 03:46:21;;;;;;;15.88;10.02;;;4.00;98.60;;;;;;5006616;28;20044;-70
2022/11/20 03:48:48;;;;;;;14.23;9.82;;;4.00;98.60;;;;;;5004896;28;20053;-70
2022/11/20 03:51:16;;;;;;;13.88;9.90;;;4.00;98.70;;;;;;5004619;28;20026;-69
2022/11/20 03:53:43;;;;;;;15.60;9.43;;;4.00;98.70;;;;;;5006449;28;20033;-69
2022/11/20 03:56:11;;;;;;;14.27;9.40;;;4.00;98.70;;;;;;5007138;28;20095;-69
2022/11/20 03:58:41;;;;;;;12.82;8.45;;;3.90;98.70;;;;;;5004589;28;20042;-69
2022/11/20 04:01:34;;;;;;;14.35;9.13;;;3.90;98.70;;;;;;5005627;28;20028;-69
2022/11/20 04:04:01;;;;;;;12.93;9.05;;;4.00;98.70;;;;;;5005989;28;20052;-70
2022/11/20 04:06:30;;;;;;;12.80;9.00;;;4.00;98.70;;;;;;5004287;28;20052;-69
2022/11/20 04:08:57;;;;;;;12.98;8.88;;;4.00;98.70;;;;;;5006155;28;20117;-70
2022/11/20 04:11:31;;;;;;;13.07;8.63;;;4.00;98.70;;;;;;5008244;28;20057;-69
2022/11/20 04:13:59;;;;;;;14.27;9.53;;;4.00;98.70;;;;;;5006197;28;20026;-69
2022/11/20 04:16:26;;;;;;;12.88;8.70;;;4.00;98.70;;;;;;5004669;28;20657;-70
2022/11/20 04:18:58;;;;;;;14.57;9.38;;;4.00;98.60;;;;;;5004280;28;20049;-69
2022/11/20 04:21:24;;;;;;;13.70;9.50;;;4.00;98.60;;;;;;5004287;28;20029;-69
2022/11/20 04:23:52;;;;;;;14.88;9.30;;;3.90;98.50;;;;;;5007249;28;20026;-69
2022/11/20 04:26:18;;;;;;;13.77;9.43;;;4.00;98.50;;;;;;5002986;28;20038;-70
2022/11/20 04:28:45;;;;;;;14.68;9.93;;;3.90;98.50;;;;;;5005855;28;20499;-69
2022/11/20 04:31:18;;;;;;;14.82;9.50;;;3.90;98.40;;;;;;5003253;28;20421;-69
2022/11/20 04:33:44;;;;;;;14.52;9.48;;;3.90;98.40;;;;;;5006456;28;20052;-68
2022/11/20 04:36:11;;;;;;;14.30;8.68;;;3.80;98.40;;;;;;5006074;28;20060;-69
2022/11/20 04:38:37;;;;;;;13.73;9.00;;;3.80;98.40;;;;;;5004603;28;20013;-69
2022/11/20 04:41:06;;;;;;;15.18;10.07;;;3.80;98.40;;;;;;5003898;28;20141;-68
2022/11/20 04:43:32;;;;;;;14.40;9.45;;;3.70;98.40;;;;;;5005872;28;20771;-67
2022/11/20 04:45:59;;;;;;;14.20;10.00;;;3.80;98.50;;;;;;5004606;28;20042;-71
2022/11/20 04:48:26;;;;;;;14.23;9.65;;;3.80;98.50;;;;;;5003964;28;20035;-70
2022/11/20 04:50:53;;;;;;;14.05;9.73;;;3.80;98.50;;;;;;5004920;28;20077;-70
2022/11/20 04:53:19;;;;;;;13.75;9.32;;;3.80;98.40;;;;;;5002867;28;20033;-69
2022/11/20 04:55:45;;;;;;;16.30;10.60;;;3.80;98.40;;;;;;5004439;28;20041;-69
2022/11/20 04:58:12;;;;;;;14.85;9.50;;;3.80;98.40;;;;;;5003025;28;20037;-69
2022/11/20 05:00:39;;;;;;;14.85;9.45;;;3.80;98.40;;;;;;5004525;28;20038;-69
2022/11/20 05:03:05;;;;;;;14.13;9.75;;;3.70;98.40;;;;;;5001558;28;20065;-70
2022/11/20 05:05:31;;;;;;;15.70;9.48;;;3.70;98.40;;;;;;5018083;28;20029;-68
2022/11/20 05:07:58;;;;;;;15.73;9.63;;;3.80;98.40;;;;;;5003700;28;20050;-71
2022/11/20 05:10:26;;;;;;;14.68;9.55;;;3.80;98.40;;;;;;5006466;28;20121;-69
2022/11/20 05:12:52;;;;;;;13.60;9.38;;;3.80;98.30;;;;;;5003034;28;20030;-69
2022/11/20 05:15:20;;;;;;;14.45;9.20;;;3.80;98.40;;;;;;5003145;28;20026;-68
2022/11/20 05:17:49;;;;;;;13.10;9.50;;;3.80;98.40;;;;;;5000144;28;20067;-69
2022/11/20 05:20:15;;;;;;;16.00;9.98;;;3.80;98.40;;;;;;5004288;28;20036;-72
2022/11/20 05:22:41;;;;;;;13.88;9.10;;;3.80;98.40;;;;;;5001702;28;20057;-70
2022/11/20 05:25:07;;;;;;;15.70;9.43;;;3.70;98.30;;;;;;5002807;28;20045;-69
2022/11/20 05:27:33;;;;;;;14.90;10.10;;;3.70;98.40;;;;;;5002499;28;20041;-67
2022/11/20 05:29:58;;;;;;;15.15;9.82;;;3.70;98.40;;;;;;5001824;28;20489;-66
2022/11/20 05:32:25;;;;;;;15.55;9.75;;;3.80;98.40;;;;;;5002491;28;20077;-66
2022/11/20 05:34:51;;;;;;;13.98;10.05;;;3.80;98.40;;;;;;5002172;28;20077;-64
2022/11/20 05:37:17;;;;;;;12.98;9.55;;;3.80;98.40;;;;;;5003442;28;20135;-64
2022/11/20 05:39:42;;;;;;;13.98;9.48;;;3.80;98.40;;;;;;5001933;28;20493;-64
2022/11/20 05:44:52;;;;;;;13.13;8.97;;;3.80;98.40;;;;;;5002780;28;20191;-65
2022/11/20 05:47:18;;;;;;;16.27;10.70;;;3.80;98.40;;;;;;5000579;28;20037;-65
2022/11/20 05:49:45;;;;;;;14.95;10.35;;;3.80;98.40;;;;;;5003027;28;20097;-65
2022/11/20 05:52:11;;;;;;;13.98;9.77;;;3.80;98.40;;;;;;5002486;28;20125;-66
2022/11/20 05:54:36;;;;;;;13.10;9.55;;;3.80;98.40;;;;;;5003275;28;20133;-67
2022/11/20 05:57:02;;;;;;;17.05;11.63;;;3.90;98.50;;;;;;5005252;28;20060;-67
2022/11/20 05:59:28;;;;;;;13.23;9.60;;;3.80;98.40;;;;;;5004918;28;20034;-67
2022/11/20 06:01:55;;;;;;;18.52;10.40;;;3.80;98.40;;;;;;5002127;28;20064;-67
2022/11/20 06:04:20;;;;;;;14.32;9.43;;;3.90;98.50;;;;;;5002976;28;20084;-67
2022/11/20 06:06:46;;;;;;;14.07;9.43;;;3.80;98.50;;;;;;5003229;28;20033;-66
2022/11/20 06:09:12;;;;;;;22.90;10.57;;;3.80;98.50;;;;;;5006018;28;20481;-65
2022/11/20 06:11:37;;;;;;;15.07;10.57;;;3.80;98.50;;;;;;5002406;28;20582;-66
2022/11/20 06:14:03;;;;;;;14.32;9.75;;;3.80;98.50;;;;;;5006673;28;20033;-65
2022/11/20 06:16:29;;;;;;;15.23;9.70;;;3.80;98.50;;;;;;5008322;28;20109;-65
2022/11/20 06:18:55;;;;;;;13.30;9.43;;;3.80;98.50;;;;;;5006912;28;20113;-66
2022/11/20 06:21:22;;;;;;;18.58;10.25;;;3.80;98.80;;;;;;5008272;28;20033;-66
2022/11/20 06:23:48;;;;;;;14.13;10.00;;;3.80;98.60;;;;;;5009409;28;20026;-65
2022/11/20 06:26:17;;;;;;;13.48;10.90;;;3.80;98.60;;;;;;5008243;28;20402;-66
2022/11/20 06:28:44;;;;;;;16.02;10.25;;;3.80;98.60;;;;;;5008582;28;20037;-66
2022/11/20 06:31:13;;;;;;;13.85;9.80;;;3.80;98.60;;;;;;5011324;28;20030;-65
2022/11/20 06:33:39;;;;;;;16.55;10.38;;;3.80;98.50;;;;;;5007634;28;20136;-65
2022/11/20 06:36:05;;;;;;;15.50;10.60;;;3.80;98.50;;;;;;5009888;28;20041;-66
2022/11/20 06:38:31;;;;;;;14.85;10.02;;;3.70;98.60;;;;;;5009748;28;20029;-66
2022/11/20 06:40:57;;;;;;;14.82;9.88;;;3.70;98.60;;;;;;5007700;28;20027;-65
2022/11/20 06:43:23;;;;;;;17.70;10.60;;;3.80;98.80;;;;;;5008442;28;20029;-66
2022/11/20 06:45:53;;;;;;;18.00;10.85;;;3.80;98.60;;;;;;5008674;28;20075;-66
2022/11/20 06:48:20;;;;;;;14.35;9.60;;;3.80;98.60;;;;;;5009899;28;20037;-66
2022/11/20 06:50:45;;;;;;;16.10;9.88;;;3.80;98.50;;;;;;5008058;28;20034;-66
2022/11/20 06:53:11;;;;;;;16.23;9.88;;;3.80;98.50;;;;;;5010867;28;20133;-66
2022/11/20 06:55:41;;;;;;;14.77;11.15;;;3.80;98.50;;;;;;5007231;28;20473;-66
2022/11/20 06:58:07;;;;;;;17.75;10.43;;;3.80;98.50;;;;;;5009081;28;20029;-67
2022/11/20 07:00:32;;;;;;;15.55;10.40;;;3.80;98.50;;;;;;5010294;28;20103;-67
2022/11/20 07:02:58;;;;;;;14.95;10.18;;;3.80;98.50;;;;;;5008103;28;20033;-65
2022/11/20 07:05:23;;;;;;;16.27;10.10;;;3.70;98.50;;;;;;5008549;28;20026;-67
2022/11/20 07:07:50;;;;;;;15.02;9.77;;;3.80;98.50;;;;;;5007348;28;20038;-67
2022/11/20 07:10:17;;;;;;;14.32;10.18;;;3.80;98.50;;;;;;5010033;28;20096;-67
2022/11/20 07:12:50;;;;;;;16.67;10.23;;;3.80;98.50;;;;;;5011597;28;20034;-66
2022/11/20 07:15:18;;;;;;;17.33;10.20;;;3.80;98.50;;;;;;5008697;28;20618;-67
2022/11/20 07:17:45;;;;;;;16.08;9.57;;;3.80;98.50;;;;;;5008799;28;20108;-66
2022/11/20 07:20:12;;;;;;;12.80;9.25;;;3.80;98.50;;;;;;5008414;28;20251;-66
2022/11/20 07:22:38;;;;;;;16.88;10.35;;;3.80;98.50;;;;;;5009850;28;20033;-67
2022/11/20 07:25:04;;;;;;;16.52;10.32;;;3.80;98.50;;;;;;5005691;28;20030;-66
2022/11/20 07:27:30;;;;;;;14.60;9.40;;;3.80;98.50;;;;;;5003789;28;20182;-66
2022/11/20 07:30:03;;;;;;;17.02;10.82;;;3.80;98.50;;;;;;5002863;28;20060;-66
2022/11/20 07:32:29;;;;;;;15.30;10.02;;;3.80;98.50;;;;;;5006230;28;20382;-65
2022/11/20 07:34:56;;;;;;;16.25;10.43;;;3.80;98.50;;;;;;5005902;28;20033;-68
2022/11/20 07:37:23;;;;;;;17.50;11.05;;;3.80;98.50;;;;;;5003083;28;20558;-66
2022/11/20 07:39:48;;;;;;;15.20;9.80;;;3.80;98.40;;;;;;5005642;28;20066;-66
2022/11/20 07:42:14;;;;;;;17.10;10.02;;;3.80;98.40;;;;;;5004311;28;20122;-66
2022/11/20 07:44:40;;;;;;;16.85;9.32;;;3.80;98.40;;;;;;5004920;28;20053;-66
2022/11/20 07:47:05;;;;;;;14.77;9.75;;;3.90;98.40;;;;;;5002549;28;20042;-66
2022/11/20 07:49:31;;;;;;;15.95;10.07;;;3.90;98.30;;;;;;5003988;28;20026;-66
2022/11/20 07:51:57;;;;;;;14.77;10.10;;;3.90;98.30;;;;;;5005089;28;20084;-67
2022/11/20 07:54:22;;;;;;;16.45;10.15;;;3.90;98.20;;;;;;5007972;28;20026;-66
2022/11/20 07:56:49;;;;;;;15.65;10.30;;;3.90;98.20;;;;;;5013097;28;20026;-67
2022/11/20 07:59:15;;;;;;;14.75;9.65;;;3.90;98.20;;;;;;5013098;28;20083;-67
2022/11/20 08:01:42;;;;;;;17.15;10.13;;;3.90;98.20;;;;;;5013725;28;20022;-67
2022/11/20 08:04:08;;;;;;;14.80;10.65;;;3.90;98.10;;;;;;5011370;28;20026;-67
2022/11/20 08:06:34;;;;;;;15.07;10.27;;;3.90;98.10;;;;;;5005548;28;20030;-67
2022/11/20 08:09:00;;;;;;;16.70;10.65;;;3.90;98.10;;;;;;5003585;28;20041;-67
2022/11/20 08:14:13;;;;;;;15.27;9.97;;;3.90;98.20;;;;;;5004236;28;20034;-66
2022/11/20 08:16:44;;;;;;;15.93;10.52;;;3.90;98.10;;;;;;5002989;28;20040;-59
2022/11/20 08:19:10;;;;;;;16.48;10.35;;;3.90;98.20;;;;;;5004889;28;20500;-68
2022/11/20 08:21:36;;;;;;;17.02;10.45;;;4.00;98.20;;;;;;5001919;28;20053;-65
2022/11/20 08:24:01;;;;;;;17.40;10.80;;;4.00;98.20;;;;;;5001851;28;20050;-66
2022/11/20 08:26:27;;;;;;;16.20;10.70;;;4.00;98.20;;;;;;5004323;28;20068;-66
2022/11/20 08:28:54;;;;;;;17.85;10.30;;;4.00;98.10;;;;;;5002640;28;20038;-66
2022/11/20 08:31:22;;;;;;;16.13;10.98;;;4.10;98.20;;;;;;5003222;28;20092;-66
2022/11/20 08:33:47;;;;;;;14.82;10.30;;;4.10;98.10;;;;;;5002951;28;20073;-68
2022/11/20 08:36:14;;;;;;;15.82;9.65;;;4.10;98.10;;;;;;5003757;28;20042;-67
2022/11/20 08:38:39;;;;;;;19.08;11.38;;;4.10;98.10;;;;;;5001733;28;20113;-66
2022/11/20 08:41:23;;;;;;;17.85;11.43;;;4.10;98.10;;;;;;5003048;28;20121;-66
2022/11/20 08:44:09;;;;;;;16.95;10.60;;;4.10;98.10;;;;;;5002276;28;20034;-65
2022/11/20 08:46:40;;;;;;;16.77;10.77;;;4.20;98.10;;;;;;5002200;28;20103;-65
2022/11/20 08:49:11;;;;;;;17.95;10.77;;;4.20;98.00;;;;;;5002413;28;20037;-65
2022/11/20 08:51:38;;;;;;;15.27;10.68;;;4.20;98.00;;;;;;5003128;28;20045;-65
2022/11/20 08:54:04;;;;;;;16.77;11.20;;;4.20;98.00;;;;;;5003757;28;20040;-65
2022/11/20 08:56:30;;;;;;;14.40;10.18;;;4.20;98.00;;;;;;5005939;28;20401;-65
2022/11/20 08:58:56;;;;;;;16.35;10.40;;;4.20;98.00;;;;;;5002868;28;20061;-64
2022/11/20 09:01:23;;;;;;;17.88;11.30;;;4.30;98.00;;;;;;5001948;28;20033;-65
2022/11/20 09:03:49;;;;;;;15.25;9.93;;;4.30;98.00;;;;;;5004215;28;20026;-65
2022/11/20 09:06:15;;;;;;;16.15;10.93;;;4.30;98.00;;;;;;5002376;28;20041;-65
2022/11/20 09:08:41;;;;;;;18.42;10.52;;;4.30;98.00;;;;;;5001198;28;20041;-65
2022/11/20 09:11:08;;;;;;;15.05;10.43;;;4.40;98.00;;;;;;5000454;28;20029;-64
2022/11/20 09:13:35;;;;;;;16.02;10.20;;;4.40;97.90;;;;;;5004569;28;20033;-64
2022/11/20 09:16:07;;;;;;;15.85;10.20;;;4.40;97.90;;;;;;5003034;28;20263;-65
2022/11/20 09:18:33;;;;;;;14.18;9.75;;;4.40;97.80;;;;;;5004292;28;20521;-65
2022/11/20 09:21:00;;;;;;;15.77;11.15;;;4.40;97.80;;;;;;5001440;28;20033;-65
2022/11/20 09:23:27;;;;;;;14.75;9.45;;;4.50;97.80;;;;;;4998414;28;20034;-64
2022/11/20 09:25:55;;;;;;;16.25;10.63;;;4.50;97.80;;;;;;4999872;28;20033;-65
2022/11/20 09:28:21;;;;;;;15.75;10.18;;;4.50;97.70;;;;;;5001670;28;20037;-65
2022/11/20 09:30:47;;;;;;;15.13;10.48;;;4.50;97.70;;;;;;5001062;28;20044;-64
2022/11/20 09:33:13;;;;;;;15.32;10.15;;;4.50;97.70;;;;;;4999226;28;20038;-65
2022/11/20 09:35:39;;;;;;;16.33;10.80;;;4.50;97.70;;;;;;4999197;28;20037;-65
2022/11/20 09:38:08;;;;;;;15.60;11.45;;;4.50;97.70;;;;;;5001057;28;20598;-68
2022/11/20 09:40:39;;;;;;;16.23;10.65;;;4.50;97.70;;;;;;4999433;28;20577;-66
2022/11/20 09:43:36;;;;;;;17.25;10.70;;;4.50;97.90;;;;;;4999075;28;20036;-64
2022/11/20 09:46:05;;;;;;;13.85;9.73;;;4.60;97.70;;;;;;5014787;28;20065;-64
2022/11/20 09:49:03;;;;;;;16.08;10.75;;;4.60;97.60;;;;;;5000845;28;20142;-63
2022/11/20 09:51:58;;;;;;;16.13;11.30;;;4.60;97.60;;;;;;5002730;28;20030;-64
2022/11/20 09:54:50;;;;;;;16.10;10.82;;;4.60;97.60;;;;;;4998499;28;20048;-64
2022/11/20 09:57:23;;;;;;;19.75;12.02;;;4.60;97.50;;;;;;4997956;28;20052;-64
2022/11/20 10:00:02;;;;;;;16.60;10.88;;;4.60;97.50;;;;;;4998960;28;20022;-64
2022/11/20 10:02:37;;;;;;;16.70;11.10;;;4.60;97.40;;;;;;5001741;28;20029;-64
2022/11/20 10:05:10;;;;;;;17.15;10.93;;;4.70;97.40;;;;;;4999644;28;20064;-64
2022/11/20 10:07:43;;;;;;;17.30;11.15;;;4.70;97.40;;;;;;4999148;28;20050;-64
2022/11/20 10:10:19;;;;;;;17.02;11.40;;;4.70;97.30;;;;;;5000024;28;20033;-64
2022/11/20 10:12:58;;;;;;;16.67;11.13;;;4.70;97.30;;;;;;5005002;28;20510;-64
2022/11/20 10:15:27;;;;;;;15.18;10.45;;;4.70;97.30;;;;;;5000729;28;20037;-63
2022/11/20 10:18:40;;;;;;;18.40;11.57;;;4.70;97.30;;;;;;5001396;28;20053;-64
2022/11/20 10:21:12;;;;;;;17.77;10.73;;;4.80;97.20;;;;;;5001268;28;20045;-64
2022/11/20 10:23:47;;;;;;;15.60;11.23;;;4.80;97.10;;;;;;4996093;28;20092;-64
2022/11/20 10:26:22;;;;;;;16.73;10.73;;;4.80;97.20;;;;;;4999324;28;20042;-64
2022/11/20 10:29:10;;;;;;;15.43;10.05;;;4.90;97.20;;;;;;5000161;28;20026;-65
2022/11/20 10:31:47;;;;;;;19.30;11.13;;;4.90;97.10;;;;;;5000712;28;20084;-64
2022/11/20 10:34:25;;;;;;;15.70;10.98;;;4.90;97.00;;;;;;4997241;28;20034;-64
2022/11/20 10:37:14;;;;;;;16.75;10.02;;;4.90;97.00;;;;;;5000053;28;20032;-64
2022/11/20 10:40:07;;;;;;;17.85;11.45;;;4.90;97.00;;;;;;5001901;28;20049;-65
2022/11/20 10:42:46;;;;;;;15.35;10.65;;;4.90;96.90;;;;;;4999217;28;20034;-68
2022/11/20 10:45:25;;;;;;;15.80;10.95;;;4.90;96.90;;;;;;4997876;28;20046;-66
2022/11/20 10:48:31;;;;;;;16.20;10.65;;;4.90;97.00;;;;;;5000664;28;20037;-66
2022/11/20 10:51:35;;;;;;;14.10;10.25;;;4.90;96.90;;;;;;4995746;28;20037;-66
2022/11/20 10:54:17;;;;;;;17.15;10.25;;;5.00;97.00;;;;;;4999521;28;20097;-66
2022/11/20 10:56:50;;;;;;;13.85;9.85;;;5.00;97.00;;;;;;4980447;28;20397;-66
2022/11/20 10:59:34;;;;;;;15.57;10.60;;;5.00;97.00;;;;;;4999674;28;20091;-65
2022/11/20 11:01:59;;;;;;;18.10;11.00;;;5.00;96.90;;;;;;5002918;28;20025;-66
2022/11/20 11:04:38;;;;;;;18.13;11.57;;;5.10;96.90;;;;;;5002540;28;20030;-66
2022/11/20 11:07:15;;;;;;;17.17;10.82;;;5.00;96.80;;;;;;5003647;28;20133;-66
2022/11/20 11:09:46;;;;;;;17.10;10.85;;;5.10;96.80;;;;;;5004673;28;20026;-65
2022/11/20 11:12:12;;;;;;;17.58;10.25;;;5.10;96.80;;;;;;5001629;28;20050;-66
2022/11/20 11:14:43;;;;;;;15.45;10.90;;;5.10;96.80;;;;;;5004894;28;20033;-66
2022/11/20 11:17:22;;;;;;;21.40;13.05;;;5.10;96.80;;;;;;5001631;28;20042;-67
2022/11/20 11:20:18;;;;;;;17.60;11.18;;;5.10;96.80;;;;;;5003038;28;20026;-66
2022/11/20 11:22:56;;;;;;;17.60;11.13;;;5.20;96.90;;;;;;4999495;28;20041;-66
2022/11/20 11:25:33;;;;;;;15.13;10.30;;;5.20;96.80;;;;;;5001173;28;20041;-66
2022/11/20 11:28:05;;;;;;;19.00;11.40;;;5.20;96.80;;;;;;4998877;28;20045;-66
2022/11/20 11:30:42;;;;;;;16.08;10.95;;;5.20;96.80;;;;;;5001628;28;20026;-66
2022/11/20 11:33:19;;;;;;;12.90;9.27;;;5.30;96.90;;;;;;5000743;28;20447;-66
2022/11/20 11:35:48;;;;;;;13.88;9.15;;;5.30;96.80;;;;;;5002103;28;20028;-66
2022/11/20 11:38:45;;;;;;;15.65;10.15;;;5.40;96.80;;;;;;5001990;28;20026;-66
2022/11/20 11:41:21;;;;;;;16.63;9.43;;;5.40;96.70;;;;;;5000307;28;20081;-66
2022/11/20 11:46:55;;;;;;;15.48;10.32;;;5.40;96.60;;;;;;5000556;28;20050;-65
2022/11/20 11:49:21;;;;;;;16.40;9.38;;;5.50;96.60;;;;;;4999136;28;20529;-65
2022/11/20 11:52:10;;;;;;;14.43;9.70;;;5.50;96.50;;;;;;4999621;28;20608;-65
2022/11/20 11:54:42;;;;;;;16.27;10.07;;;5.60;96.50;;;;;;4998710;28;20046;-66
2022/11/20 11:57:31;;;;;;;13.05;9.60;;;5.60;96.40;;;;;;5000066;28;20030;-66
2022/11/20 12:00:09;;;;;;;14.48;9.68;;;5.60;96.30;;;;;;4999357;28;20061;-66
2022/11/20 12:03:06;;;;;;;14.85;9.70;;;5.60;96.30;;;;;;4999941;28;20038;-66
2022/11/20 12:05:42;;;;;;;14.75;9.52;;;5.70;96.30;;;;;;5000379;28;20029;-66
2022/11/20 12:08:41;;;;;;;15.65;9.68;;;5.70;96.40;;;;;;5000420;28;20038;-66
2022/11/20 12:11:15;;;;;;;11.68;8.05;;;5.60;96.40;;;;;;5001100;28;20625;-66
2022/11/20 12:13:52;;;;;;;17.67;9.85;;;5.60;96.60;;;;;;5001765;28;20038;-67
2022/11/20 12:16:20;;;;;;;12.85;8.50;;;5.60;96.40;;;;;;5000133;28;20038;-65
2022/11/20 12:18:49;;;;;;;15.10;9.73;;;5.60;96.40;;;;;;5000484;28;20045;-66
2022/11/20 12:21:22;;;;;;;13.25;9.10;;;5.60;96.40;;;;;;5000809;28;20129;-66
2022/11/20 12:24:17;;;;;;;15.02;9.35;;;5.60;96.50;;;;;;5003523;28;20075;-66
2022/11/20 12:26:46;;;;;;;14.25;10.23;;;5.60;96.50;;;;;;5001167;28;20048;-66
2022/11/20 12:29:12;;;;;;;14.60;9.38;;;5.60;96.50;;;;;;5000270;28;20077;-66
2022/11/20 12:31:49;;;;;;;13.55;9.57;;;5.60;96.50;;;;;;4997378;28;20049;-66
2022/11/20 12:34:45;;;;;;;15.20;9.23;;;5.60;96.50;;;;;;4998911;28;20377;-65
2022/11/20 12:37:36;;;;;;;13.10;8.88;;;5.60;96.50;;;;;;5000932;28;20809;-66
2022/11/20 12:40:20;;;;;;;13.52;9.02;;;5.60;96.50;;;;;;4998611;28;20575;-66
2022/11/20 12:46:13;;;;;;;14.80;8.68;;;5.60;96.50;;;;;;5002166;28;20460;-66
2022/11/20 12:48:47;;;;;;;13.73;8.65;;;5.70;96.40;;;;;;5000557;28;20071;-66
2022/11/20 12:51:23;;;;;;;14.60;8.60;;;5.60;96.30;;;;;;5001489;28;20377;-67
2022/11/20 12:54:14;;;;;;;15.50;9.18;;;5.60;96.30;;;;;;4998202;28;20026;-67
2022/11/20 12:57:02;;;;;;;13.70;9.52;;;5.60;96.30;;;;;;4998467;28;20389;-66
2022/11/20 12:59:48;;;;;;;12.85;8.02;;;5.50;96.20;;;;;;4997803;28;20109;-67
2022/11/20 13:02:49;;;;;;;11.48;7.75;;;5.50;96.20;;;;;;5000006;28;20485;-65
2022/11/20 13:05:52;;;;;;;10.95;7.63;;;5.40;96.20;;;;;;5002571;28;20148;-65
2022/11/20 13:08:29;;;;;;;9.57;6.65;;;5.40;96.10;;;;;;4998122;28;20497;-65
2022/11/20 13:11:02;;;;;;;9.45;6.60;;;5.40;96.10;;;;;;4997884;28;20045;-67
2022/11/20 13:14:03;;;;;;;10.18;6.75;;;5.30;96.00;;;;;;4995632;28;20512;-65
2022/11/20 13:16:28;;;;;;;12.88;6.72;;;5.30;96.00;;;;;;4999385;28;20394;-64